sensor_id;sensor_type;location;lat;lon;timestamp;pressure;altitude;pressure_sealevel;temperature
15360;BMP280;7779;49.596;11.070;2023-02-21T00:02:38;98712.72;;;9.61
15360;BMP280;7779;49.596;11.070;2023-02-21T00:05:22;98722.69;;;9.48
15360;BMP280;7779;49.596;11.070;2023-02-21T00:08:06;98714.50;;;9.37
15360;BMP280;7779;49.596;11.070;2023-02-21T00:10:50;98716.06;;;9.24
15360;BMP280;7779;49.596;11.070;2023-02-21T00:13:37;98712.78;;;9.12
15360;BMP280;7779;49.596;11.070;2023-02-21T00:16:21;98698.38;;;8.97
15360;BMP280;7779;49.596;11.070;2023-02-21T00:19:07;98703.53;;;8.87
15360;BMP280;7779;49.596;11.070;2023-02-21T00:21:51;98703.53;;;8.76
15360;BMP280;7779;49.596;11.070;2023-02-21T00:24:36;98706.06;;;8.64
15360;BMP280;7779;49.596;11.070;2023-02-21T00:27:20;98705.34;;;8.54
15360;BMP280;7779;49.596;11.070;2023-02-21T00:30:06;98706.22;;;8.43
15360;BMP280;7779;49.596;11.070;2023-02-21T00:32:51;98697.13;;;8.32
15360;BMP280;7779;49.596;11.070;2023-02-21T00:35:36;98697.25;;;8.22
15360;BMP280;7779;49.596;11.070;2023-02-21T00:38:20;98696.63;;;8.14
15360;BMP280;7779;49.596;11.070;2023-02-21T00:41:04;98688.44;;;8.05
15360;BMP280;7779;49.596;11.070;2023-02-21T00:43:48;98697.78;;;7.96
15360;BMP280;7779;49.596;11.070;2023-02-21T00:46:33;98694.63;;;7.87
15360;BMP280;7779;49.596;11.070;2023-02-21T00:49:18;98699.94;;;7.80
15360;BMP280;7779;49.596;11.070;2023-02-21T00:52:02;98691.78;;;7.71
15360;BMP280;7779;49.596;11.070;2023-02-21T00:54:47;98697.88;;;7.63
15360;BMP280;7779;49.596;11.070;2023-02-21T00:57:31;98700.66;;;7.56
15360;BMP280;7779;49.596;11.070;2023-02-21T01:00:19;98700.00;;;7.47
15360;BMP280;7779;49.596;11.070;2023-02-21T01:03:04;98692.81;;;7.40
15360;BMP280;7779;49.596;11.070;2023-02-21T01:05:50;98688.91;;;7.33
15360;BMP280;7779;49.596;11.070;2023-02-21T01:08:35;98690.19;;;7.28
15360;BMP280;7779;49.596;11.070;2023-02-21T01:11:21;98693.00;;;7.21
15360;BMP280;7779;49.596;11.070;2023-02-21T01:14:06;98697.53;;;7.15
15360;BMP280;7779;49.596;11.070;2023-02-21T01:16:51;98690.34;;;7.08
15360;BMP280;7779;49.596;11.070;2023-02-21T01:19:35;98691.63;;;7.03
15360;BMP280;7779;49.596;11.070;2023-02-21T01:22:19;98689.44;;;6.96
15360;BMP280;7779;49.596;11.070;2023-02-21T01:25:04;98693.97;;;6.90
15360;BMP280;7779;49.596;11.070;2023-02-21T01:27:52;98691.03;;;6.84
15360;BMP280;7779;49.596;11.070;2023-02-21T01:30:36;98693.81;;;6.77
15360;BMP280;7779;49.596;11.070;2023-02-21T01:33:21;98693.47;;;6.73
15360;BMP280;7779;49.596;11.070;2023-02-21T01:36:07;98695.59;;;6.68
15360;BMP280;7779;49.596;11.070;2023-02-21T01:38:53;98689.41;;;6.63
15360;BMP280;7779;49.596;11.070;2023-02-21T01:41:37;98689.81;;;6.58
15360;BMP280;7779;49.596;11.070;2023-02-21T01:44:41;98686.22;;;6.55
15360;BMP280;7779;49.596;11.070;2023-02-21T01:47:26;98685.88;;;6.50
15360;BMP280;7779;49.596;11.070;2023-02-21T01:50:36;98678.03;;;6.46
15360;BMP280;7779;49.596;11.070;2023-02-21T01:53:25;98686.81;;;6.41
15360;BMP280;7779;49.596;11.070;2023-02-21T01:56:10;98675.75;;;6.37
15360;BMP280;7779;49.596;11.070;2023-02-21T01:59:00;98669.66;;;6.34
15360;BMP280;7779;49.596;11.070;2023-02-21T02:01:53;98676.13;;;6.32
15360;BMP280;7779;49.596;11.070;2023-02-21T02:04:41;98668.19;;;6.26
15360;BMP280;7779;49.596;11.070;2023-02-21T02:07:25;98674.56;;;6.22
15360;BMP280;7779;49.596;11.070;2023-02-21T02:10:12;98665.09;;;6.19
15360;BMP280;7779;49.596;11.070;2023-02-21T02:13:48;98668.97;;;6.15
15360;BMP280;7779;49.596;11.070;2023-02-21T02:16:31;98667.78;;;6.10
15360;BMP280;7779;49.596;11.070;2023-02-21T02:19:54;98678.34;;;6.08
15360;BMP280;7779;49.596;11.070;2023-02-21T02:28:45;98672.44;;;5.96
15360;BMP280;7779;49.596;11.070;2023-02-21T02:31:35;98677.91;;;5.92
15360;BMP280;7779;49.596;11.070;2023-02-21T02:37:16;98674.19;;;5.87
15360;BMP280;7779;49.596;11.070;2023-02-21T02:39:59;98678.06;;;5.83
15360;BMP280;7779;49.596;11.070;2023-02-21T02:45:14;98683.53;;;5.80
15360;BMP280;7779;49.596;11.070;2023-02-21T02:47:46;98687.53;;;5.78
15360;BMP280;7779;49.596;11.070;2023-02-21T02:50:16;98676.47;;;5.74
15360;BMP280;7779;49.596;11.070;2023-02-21T02:52:53;98683.03;;;5.74
15360;BMP280;7779;49.596;11.070;2023-02-21T02:55:40;98678.06;;;5.74
15360;BMP280;7779;49.596;11.070;2023-02-21T02:58:10;98678.06;;;5.74
15360;BMP280;7779;49.596;11.070;2023-02-21T03:00:43;98674.34;;;5.79
15360;BMP280;7779;49.596;11.070;2023-02-21T03:03:32;98664.13;;;5.85
15360;BMP280;7779;49.596;11.070;2023-02-21T03:06:43;98664.47;;;5.90
15360;BMP280;7779;49.596;11.070;2023-02-21T03:09:36;98667.47;;;5.96
15360;BMP280;7779;49.596;11.070;2023-02-21T03:12:35;98662.94;;;6.02
15360;BMP280;7779;49.596;11.070;2023-02-21T03:15:30;98666.66;;;6.07
15360;BMP280;7779;49.596;11.070;2023-02-21T03:18:06;98667.88;;;6.12
15360;BMP280;7779;49.596;11.070;2023-02-21T03:20:35;98666.09;;;6.21
15360;BMP280;7779;49.596;11.070;2023-02-21T03:23:04;98675.91;;;6.29
15360;BMP280;7779;49.596;11.070;2023-02-21T03:25:33;98672.28;;;6.35
15360;BMP280;7779;49.596;11.070;2023-02-21T03:28:02;98665.38;;;6.43
15360;BMP280;7779;49.596;11.070;2023-02-21T03:30:36;98673.56;;;6.52
15360;BMP280;7779;49.596;11.070;2023-02-21T03:33:03;98670.88;;;6.60
15360;BMP280;7779;49.596;11.070;2023-02-21T03:35:29;98669.19;;;6.70
15360;BMP280;7779;49.596;11.070;2023-02-21T03:37:57;98675.72;;;6.80
15360;BMP280;7779;49.596;11.070;2023-02-21T03:40:31;98668.19;;;6.90
15360;BMP280;7779;49.596;11.070;2023-02-21T03:43:01;98671.25;;;6.97
15360;BMP280;7779;49.596;11.070;2023-02-21T03:45:30;98665.13;;;7.03
15360;BMP280;7779;49.596;11.070;2023-02-21T03:48:03;98673.03;;;7.09
15360;BMP280;7779;49.596;11.070;2023-02-21T03:50:31;98665.16;;;7.15
15360;BMP280;7779;49.596;11.070;2023-02-21T03:52:57;98662.00;;;7.17
15360;BMP280;7779;49.596;11.070;2023-02-21T03:55:23;98662.34;;;7.22
15360;BMP280;7779;49.596;11.070;2023-02-21T03:57:50;98669.28;;;7.26
15360;BMP280;7779;49.596;11.070;2023-02-21T04:00:17;98671.13;;;7.28
15360;BMP280;7779;49.596;11.070;2023-02-21T04:02:46;98674.59;;;7.30
15360;BMP280;7779;49.596;11.070;2023-02-21T04:05:23;98670.69;;;7.34
15360;BMP280;7779;49.596;11.070;2023-02-21T04:07:48;98675.16;;;7.38
15360;BMP280;7779;49.596;11.070;2023-02-21T04:10:15;98673.13;;;7.43
15360;BMP280;7779;49.596;11.070;2023-02-21T04:12:44;98665.34;;;7.50
15360;BMP280;7779;49.596;11.070;2023-02-21T04:15:10;98668.38;;;7.58
15360;BMP280;7779;49.596;11.070;2023-02-21T04:17:36;98669.66;;;7.64
15360;BMP280;7779;49.596;11.070;2023-02-21T04:20:04;98659.25;;;7.70
15360;BMP280;7779;49.596;11.070;2023-02-21T04:22:34;98662.09;;;7.74
15360;BMP280;7779;49.596;11.070;2023-02-21T04:25:00;98659.91;;;7.78
15360;BMP280;7779;49.596;11.070;2023-02-21T04:27:28;98656.00;;;7.82
15360;BMP280;7779;49.596;11.070;2023-02-21T04:29:55;98657.97;;;7.86
15360;BMP280;7779;49.596;11.070;2023-02-21T04:32:21;98654.06;;;7.89
15360;BMP280;7779;49.596;11.070;2023-02-21T04:34:47;98647.66;;;7.93
15360;BMP280;7779;49.596;11.070;2023-02-21T04:37:13;98649.59;;;7.97
15360;BMP280;7779;49.596;11.070;2023-02-21T04:39:40;98646.47;;;7.99
15360;BMP280;7779;49.596;11.070;2023-02-21T04:42:07;98644.16;;;8.02
15360;BMP280;7779;49.596;11.070;2023-02-21T04:44:34;98641.03;;;8.05
15360;BMP280;7779;49.596;11.070;2023-02-21T04:47:00;98644.00;;;8.11
15360;BMP280;7779;49.596;11.070;2023-02-21T04:49:25;98634.97;;;8.13
15360;BMP280;7779;49.596;11.070;2023-02-21T04:51:53;98636.16;;;8.18
15360;BMP280;7779;49.596;11.070;2023-02-21T04:54:19;98629.75;;;8.21
15360;BMP280;7779;49.596;11.070;2023-02-21T04:56:45;98625.84;;;8.24
15360;BMP280;7779;49.596;11.070;2023-02-21T04:59:11;98627.78;;;8.28
15360;BMP280;7779;49.596;11.070;2023-02-21T05:01:37;98628.88;;;8.32
15360;BMP280;7779;49.596;11.070;2023-02-21T05:04:03;98614.97;;;8.35
15360;BMP280;7779;49.596;11.070;2023-02-21T05:06:30;98610.28;;;8.40
15360;BMP280;7779;49.596;11.070;2023-02-21T05:08:57;98613.84;;;8.43
15360;BMP280;7779;49.596;11.070;2023-02-21T05:11:24;98613.28;;;8.47
15360;BMP280;7779;49.596;11.070;2023-02-21T05:13:51;98604.28;;;8.49
15360;BMP280;7779;49.596;11.070;2023-02-21T05:16:18;98600.16;;;8.50
15360;BMP280;7779;49.596;11.070;2023-02-21T05:18:46;98597.78;;;8.51
15360;BMP280;7779;49.596;11.070;2023-02-21T05:21:14;98605.28;;;8.51
15360;BMP280;7779;49.596;11.070;2023-02-21T05:23:41;98603.75;;;8.53
15360;BMP280;7779;49.596;11.070;2023-02-21T05:26:23;98602.22;;;8.55
15360;BMP280;7779;49.596;11.070;2023-02-21T05:28:49;98600.56;;;8.56
15360;BMP280;7779;49.596;11.070;2023-02-21T05:31:16;98598.19;;;8.57
15360;BMP280;7779;49.596;11.070;2023-02-21T05:33:41;98603.38;;;8.60
15360;BMP280;7779;49.596;11.070;2023-02-21T05:36:07;98597.72;;;8.62
15360;BMP280;7779;49.596;11.070;2023-02-21T05:38:48;98599.66;;;8.66
15360;BMP280;7779;49.596;11.070;2023-02-21T05:41:15;98598.97;;;8.69
15360;BMP280;7779;49.596;11.070;2023-02-21T05:43:46;98612.66;;;8.74
15360;BMP280;7779;49.596;11.070;2023-02-21T05:46:30;98604.59;;;8.78
15360;BMP280;7779;49.596;11.070;2023-02-21T05:48:58;98604.06;;;8.82
15360;BMP280;7779;49.596;11.070;2023-02-21T05:51:25;98610.00;;;8.84
15360;BMP280;7779;49.596;11.070;2023-02-21T05:53:52;98605.41;;;8.90
15360;BMP280;7779;49.596;11.070;2023-02-21T05:56:19;98604.09;;;8.95
15360;BMP280;7779;49.596;11.070;2023-02-21T05:58:45;98609.47;;;9.00
15360;BMP280;7779;49.596;11.070;2023-02-21T06:01:11;98611.63;;;9.07
15360;BMP280;7779;49.596;11.070;2023-02-21T06:03:37;98602.78;;;9.12
15360;BMP280;7779;49.596;11.070;2023-02-21T06:06:03;98590.69;;;9.18
15360;BMP280;7779;49.596;11.070;2023-02-21T06:08:29;98603.47;;;9.23
15360;BMP280;7779;49.596;11.070;2023-02-21T06:10:55;98594.63;;;9.28
15360;BMP280;7779;49.596;11.070;2023-02-21T06:13:21;98604.28;;;9.34
15360;BMP280;7779;49.596;11.070;2023-02-21T06:15:46;98601.28;;;9.40
15360;BMP280;7779;49.596;11.070;2023-02-21T06:18:14;98602.47;;;9.45
15360;BMP280;7779;49.596;11.070;2023-02-21T06:20:39;98605.34;;;9.51
15360;BMP280;7779;49.596;11.070;2023-02-21T06:23:05;98604.00;;;9.56
15360;BMP280;7779;49.596;11.070;2023-02-21T06:25:31;98613.44;;;9.60
15360;BMP280;7779;49.596;11.070;2023-02-21T06:27:56;98605.19;;;9.61
15360;BMP280;7779;49.596;11.070;2023-02-21T06:30:22;98596.03;;;9.61
15360;BMP280;7779;49.596;11.070;2023-02-21T06:32:48;98599.19;;;9.59
15360;BMP280;7779;49.596;11.070;2023-02-21T06:35:13;98588.03;;;9.54
15360;BMP280;7779;49.596;11.070;2023-02-21T06:37:39;98592.63;;;9.48
15360;BMP280;7779;49.596;11.070;2023-02-21T06:40:06;98597.25;;;9.42
15360;BMP280;7779;49.596;11.070;2023-02-21T06:42:31;98585.13;;;9.35
15360;BMP280;7779;49.596;11.070;2023-02-21T06:44:57;98593.94;;;9.30
15360;BMP280;7779;49.596;11.070;2023-02-21T06:47:23;98590.97;;;9.23
15360;BMP280;7779;49.596;11.070;2023-02-21T06:49:48;98596.44;;;9.17
15360;BMP280;7779;49.596;11.070;2023-02-21T06:52:14;98597.69;;;9.11
15360;BMP280;7779;49.596;11.070;2023-02-21T06:54:40;98597.31;;;9.05
15360;BMP280;7779;49.596;11.070;2023-02-21T06:57:06;98599.38;;;8.99
15360;BMP280;7779;49.596;11.070;2023-02-21T06:59:32;98604.19;;;8.96
15360;BMP280;7779;49.596;11.070;2023-02-21T07:01:58;98607.34;;;8.94
15360;BMP280;7779;49.596;11.070;2023-02-21T07:04:24;98613.88;;;8.92
15360;BMP280;7779;49.596;11.070;2023-02-21T07:06:51;98615.31;;;8.88
15360;BMP280;7779;49.596;11.070;2023-02-21T07:09:17;98620.97;;;8.86
15360;BMP280;7779;49.596;11.070;2023-02-21T07:11:43;98622.50;;;8.84
15360;BMP280;7779;49.596;11.070;2023-02-21T07:14:11;98619.78;;;8.81
15360;BMP280;7779;49.596;11.070;2023-02-21T07:16:37;98629.88;;;8.82
15360;BMP280;7779;49.596;11.070;2023-02-21T07:19:03;98628.25;;;8.83
15360;BMP280;7779;49.596;11.070;2023-02-21T07:21:29;98638.34;;;8.84
15360;BMP280;7779;49.596;11.070;2023-02-21T07:23:55;98633.47;;;8.86
15360;BMP280;7779;49.596;11.070;2023-02-21T07:26:21;98640.16;;;8.87
15360;BMP280;7779;49.596;11.070;2023-02-21T07:28:48;98640.28;;;8.88
15360;BMP280;7779;49.596;11.070;2023-02-21T07:31:13;98640.38;;;8.90
15360;BMP280;7779;49.596;11.070;2023-02-21T07:33:39;98650.59;;;8.93
15360;BMP280;7779;49.596;11.070;2023-02-21T07:36:06;98652.41;;;8.95
15360;BMP280;7779;49.596;11.070;2023-02-21T07:38:32;98649.47;;;9.00
15360;BMP280;7779;49.596;11.070;2023-02-21T07:41:01;98648.16;;;9.05
15360;BMP280;7779;49.596;11.070;2023-02-21T07:43:29;98651.88;;;9.12
15360;BMP280;7779;49.596;11.070;2023-02-21T07:45:56;98645.69;;;9.18
15360;BMP280;7779;49.596;11.070;2023-02-21T07:48:21;98646.06;;;9.24
15360;BMP280;7779;49.596;11.070;2023-02-21T07:50:48;98639.84;;;9.31
15360;BMP280;7779;49.596;11.070;2023-02-21T07:53:15;98652.84;;;9.38
15360;BMP280;7779;49.596;11.070;2023-02-21T07:55:41;98652.38;;;9.43
15360;BMP280;7779;49.596;11.070;2023-02-21T07:58:07;98653.06;;;9.54
15360;BMP280;7779;49.596;11.070;2023-02-21T08:00:33;98651.91;;;9.62
15360;BMP280;7779;49.596;11.070;2023-02-21T08:02:59;98647.50;;;9.71
15360;BMP280;7779;49.596;11.070;2023-02-21T08:05:25;98648.94;;;9.80
15360;BMP280;7779;49.596;11.070;2023-02-21T08:07:54;98655.38;;;9.89
15360;BMP280;7779;49.596;11.070;2023-02-21T08:10:26;98649.44;;;10.00
15360;BMP280;7779;49.596;11.070;2023-02-21T08:12:52;98655.13;;;10.11
15360;BMP280;7779;49.596;11.070;2023-02-21T08:15:18;98659.16;;;10.21
15360;BMP280;7779;49.596;11.070;2023-02-21T08:17:47;98662.44;;;10.33
15360;BMP280;7779;49.596;11.070;2023-02-21T08:20:14;98659.81;;;10.45
15360;BMP280;7779;49.596;11.070;2023-02-21T08:22:40;98656.31;;;10.55
15360;BMP280;7779;49.596;11.070;2023-02-21T08:25:06;98658.78;;;10.68
15360;BMP280;7779;49.596;11.070;2023-02-21T08:27:32;98665.47;;;10.82
15360;BMP280;7779;49.596;11.070;2023-02-21T08:29:57;98666.22;;;10.94
15360;BMP280;7779;49.596;11.070;2023-02-21T08:32:23;98666.16;;;11.07
15360;BMP280;7779;49.596;11.070;2023-02-21T08:34:49;98662.81;;;11.21
15360;BMP280;7779;49.596;11.070;2023-02-21T08:37:15;98664.56;;;11.36
15360;BMP280;7779;49.596;11.070;2023-02-21T08:39:49;98667.31;;;11.53
15360;BMP280;7779;49.596;11.070;2023-02-21T08:42:17;98666.59;;;11.70
15360;BMP280;7779;49.596;11.070;2023-02-21T08:44:44;98666.09;;;11.90
15360;BMP280;7779;49.596;11.070;2023-02-21T08:47:11;98671.50;;;12.11
15360;BMP280;7779;49.596;11.070;2023-02-21T08:49:37;98674.50;;;12.35
15360;BMP280;7779;49.596;11.070;2023-02-21T08:52:06;98669.91;;;12.58
15360;BMP280;7779;49.596;11.070;2023-02-21T08:54:32;98672.94;;;12.83
15360;BMP280;7779;49.596;11.070;2023-02-21T08:56:58;98666.72;;;13.08
15360;BMP280;7779;49.596;11.070;2023-02-21T08:59:24;98677.34;;;13.34
15360;BMP280;7779;49.596;11.070;2023-02-21T09:01:52;98675.28;;;13.59
15360;BMP280;7779;49.596;11.070;2023-02-21T09:04:17;98678.97;;;13.82
15360;BMP280;7779;49.596;11.070;2023-02-21T09:06:43;98674.22;;;14.04
15360;BMP280;7779;49.596;11.070;2023-02-21T09:09:09;98669.22;;;14.23
15360;BMP280;7779;49.596;11.070;2023-02-21T09:11:34;98672.50;;;14.38
15360;BMP280;7779;49.596;11.070;2023-02-21T09:14:00;98669.81;;;14.52
15360;BMP280;7779;49.596;11.070;2023-02-21T09:16:31;98670.41;;;14.65
15360;BMP280;7779;49.596;11.070;2023-02-21T09:18:58;98654.97;;;14.77
15360;BMP280;7779;49.596;11.070;2023-02-21T09:21:26;98663.00;;;14.87
15360;BMP280;7779;49.596;11.070;2023-02-21T09:23:55;98664.28;;;14.96
15360;BMP280;7779;49.596;11.070;2023-02-21T09:26:21;98662.06;;;15.04
15360;BMP280;7779;49.596;11.070;2023-02-21T09:28:52;98659.88;;;15.11
15360;BMP280;7779;49.596;11.070;2023-02-21T09:31:19;98656.00;;;15.18
15360;BMP280;7779;49.596;11.070;2023-02-21T09:33:45;98660.47;;;15.23
15360;BMP280;7779;49.596;11.070;2023-02-21T09:36:11;98651.34;;;15.26
15360;BMP280;7779;49.596;11.070;2023-02-21T09:38:37;98649.00;;;15.31
15360;BMP280;7779;49.596;11.070;2023-02-21T09:41:10;98647.56;;;15.36
15360;BMP280;7779;49.596;11.070;2023-02-21T09:43:42;98643.44;;;15.38
15360;BMP280;7779;49.596;11.070;2023-02-21T09:46:41;98656.25;;;15.42
15360;BMP280;7779;49.596;11.070;2023-02-21T09:49:25;98651.31;;;15.45
15360;BMP280;7779;49.596;11.070;2023-02-21T09:51:54;98639.81;;;15.52
15360;BMP280;7779;49.596;11.070;2023-02-21T09:54:39;98639.22;;;15.57
15360;BMP280;7779;49.596;11.070;2023-02-21T09:57:13;98636.16;;;15.64
15360;BMP280;7779;49.596;11.070;2023-02-21T09:59:39;98637.38;;;15.73
15360;BMP280;7779;49.596;11.070;2023-02-21T10:07:58;98633.34;;;15.99
15360;BMP280;7779;49.596;11.070;2023-02-21T10:10:43;98637.03;;;16.06
15360;BMP280;7779;49.596;11.070;2023-02-21T10:13:41;98629.81;;;16.15
15360;BMP280;7779;49.596;11.070;2023-02-21T10:16:36;98635.25;;;16.24
15360;BMP280;7779;49.596;11.070;2023-02-21T10:19:25;98628.78;;;16.31
15360;BMP280;7779;49.596;11.070;2023-02-21T10:21:57;98636.66;;;16.38
15360;BMP280;7779;49.596;11.070;2023-02-21T10:24:26;98630.22;;;16.46
15360;BMP280;7779;49.596;11.070;2023-02-21T10:27:06;98622.13;;;16.54
15360;BMP280;7779;49.596;11.070;2023-02-21T10:30:05;98629.19;;;16.63
15360;BMP280;7779;49.596;11.070;2023-02-21T10:32:35;98626.03;;;16.68
15360;BMP280;7779;49.596;11.070;2023-02-21T10:35:02;98629.56;;;16.73
15360;BMP280;7779;49.596;11.070;2023-02-21T10:37:43;98629.69;;;16.76
15360;BMP280;7779;49.596;11.070;2023-02-21T10:42:49;98628.19;;;16.81
15360;BMP280;7779;49.596;11.070;2023-02-21T10:45:23;98619.03;;;16.84
15360;BMP280;7779;49.596;11.070;2023-02-21T10:47:59;98610.75;;;16.88
15360;BMP280;7779;49.596;11.070;2023-02-21T10:50:53;98611.88;;;16.96
15360;BMP280;7779;49.596;11.070;2023-02-21T10:53:52;98606.13;;;17.00
15360;BMP280;7779;49.596;11.070;2023-02-21T10:56:21;98614.84;;;17.08
15360;BMP280;7779;49.596;11.070;2023-02-21T10:59:00;98607.50;;;17.16
15360;BMP280;7779;49.596;11.070;2023-02-21T11:04:00;98607.28;;;17.31
15360;BMP280;7779;49.596;11.070;2023-02-21T11:08:55;98603.56;;;17.47
15360;BMP280;7779;49.596;11.070;2023-02-21T11:11:37;98599.63;;;17.55
15360;BMP280;7779;49.596;11.070;2023-02-21T11:14:25;98599.03;;;17.63
15360;BMP280;7779;49.596;11.070;2023-02-21T11:17:22;98600.97;;;17.70
15360;BMP280;7779;49.596;11.070;2023-02-21T11:19:55;98591.81;;;17.73
15360;BMP280;7779;49.596;11.070;2023-02-21T11:25:37;98580.03;;;17.75
15360;BMP280;7779;49.596;11.070;2023-02-21T11:30:37;98569.91;;;17.75
15360;BMP280;7779;49.596;11.070;2023-02-21T11:33:05;98571.72;;;17.79
15360;BMP280;7779;49.596;11.070;2023-02-21T11:35:46;98560.06;;;17.84
15360;BMP280;7779;49.596;11.070;2023-02-21T11:38:36;98556.78;;;17.88
15360;BMP280;7779;49.596;11.070;2023-02-21T11:43:46;98555.38;;;17.96
15360;BMP280;7779;49.596;11.070;2023-02-21T11:49:23;98541.06;;;17.98
15360;BMP280;7779;49.596;11.070;2023-02-21T11:52:06;98534.25;;;17.96
15360;BMP280;7779;49.596;11.070;2023-02-21T11:54:32;98529.84;;;17.90
15360;BMP280;7779;49.596;11.070;2023-02-21T11:57:24;98523.81;;;17.87
15360;BMP280;7779;49.596;11.070;2023-02-21T12:00:41;98524.50;;;17.81
15360;BMP280;7779;49.596;11.070;2023-02-21T12:07:03;98513.28;;;17.75
15360;BMP280;7779;49.596;11.070;2023-02-21T12:09:48;98517.50;;;17.74
15360;BMP280;7779;49.596;11.070;2023-02-21T12:12:45;98508.19;;;17.73
15360;BMP280;7779;49.596;11.070;2023-02-21T12:15:24;98504.75;;;17.71
15360;BMP280;7779;49.596;11.070;2023-02-21T12:18:35;98497.09;;;17.70
15360;BMP280;7779;49.596;11.070;2023-02-21T12:21:15;98503.84;;;17.69
15360;BMP280;7779;49.596;11.070;2023-02-21T12:30:26;98472.56;;;17.69
15360;BMP280;7779;49.596;11.070;2023-02-21T12:33:42;98464.91;;;17.67
15360;BMP280;7779;49.596;11.070;2023-02-21T12:45:22;98449.34;;;17.56
15360;BMP280;7779;49.596;11.070;2023-02-21T12:51:05;98437.41;;;17.52
15360;BMP280;7779;49.596;11.070;2023-02-21T12:53:52;98424.78;;;17.53
15360;BMP280;7779;49.596;11.070;2023-02-21T12:59:17;98421.69;;;17.63
15360;BMP280;7779;49.596;11.070;2023-02-21T13:01:51;98413.41;;;17.68
15360;BMP280;7779;49.596;11.070;2023-02-21T13:06:58;98407.91;;;17.81
15360;BMP280;7779;49.596;11.070;2023-02-21T13:09:42;98403.13;;;17.90
15360;BMP280;7779;49.596;11.070;2023-02-21T13:12:19;98396.69;;;18.02
15360;BMP280;7779;49.596;11.070;2023-02-21T13:14:54;98388.63;;;18.14
15360;BMP280;7779;49.596;11.070;2023-02-21T13:17:21;98391.56;;;18.29
15360;BMP280;7779;49.596;11.070;2023-02-21T13:20:05;98390.38;;;18.47
15360;BMP280;7779;49.596;11.070;2023-02-21T13:28:27;98380.63;;;18.95
15360;BMP280;7779;49.596;11.070;2023-02-21T13:30:59;98380.06;;;19.07
15360;BMP280;7779;49.596;11.070;2023-02-21T13:33:37;98369.34;;;19.17
15360;BMP280;7779;49.596;11.070;2023-02-21T13:36:40;98367.94;;;19.29
15360;BMP280;7779;49.596;11.070;2023-02-21T13:39:31;98364.72;;;19.37
15360;BMP280;7779;49.596;11.070;2023-02-21T13:42:10;98355.56;;;19.44
15360;BMP280;7779;49.596;11.070;2023-02-21T13:44:44;98356.41;;;19.44
15360;BMP280;7779;49.596;11.070;2023-02-21T13:47:15;98356.41;;;19.44
15360;BMP280;7779;49.596;11.070;2023-02-21T13:49:56;98356.41;;;19.44
15360;BMP280;7779;49.596;11.070;2023-02-21T13:57:43;98350.47;;;19.44
15360;BMP280;7779;49.596;11.070;2023-02-21T14:08:43;98335.25;;;19.44
15360;BMP280;7779;49.596;11.070;2023-02-21T14:11:25;98337.78;;;19.44
15360;BMP280;7779;49.596;11.070;2023-02-21T14:14:19;98334.44;;;19.46
15360;BMP280;7779;49.596;11.070;2023-02-21T14:16:51;98332.78;;;19.48
15360;BMP280;7779;49.596;11.070;2023-02-21T14:19:48;98332.78;;;19.48
15360;BMP280;7779;49.596;11.070;2023-02-21T14:22:23;98329.31;;;19.45
15360;BMP280;7779;49.596;11.070;2023-02-21T14:25:03;98333.50;;;19.43
15360;BMP280;7779;49.596;11.070;2023-02-21T14:27:32;98330.88;;;19.38
15360;BMP280;7779;49.596;11.070;2023-02-21T14:32:49;98328.25;;;19.35
15360;BMP280;7779;49.596;11.070;2023-02-21T14:38:16;98323.97;;;19.33
15360;BMP280;7779;49.596;11.070;2023-02-21T14:41:04;98333.25;;;19.31
15360;BMP280;7779;49.596;11.070;2023-02-21T14:44:29;98323.06;;;19.29
15360;BMP280;7779;49.596;11.070;2023-02-21T14:51:03;98318.03;;;19.31
15360;BMP280;7779;49.596;11.070;2023-02-21T14:57:31;98310.44;;;19.34
15360;BMP280;7779;49.596;11.070;2023-02-21T15:03:16;98302.63;;;19.25
15360;BMP280;7779;49.596;11.070;2023-02-21T15:05:58;98311.88;;;19.21
15360;BMP280;7779;49.596;11.070;2023-02-21T15:08:26;98305.72;;;19.12
15360;BMP280;7779;49.596;11.070;2023-02-21T15:10:59;98306.34;;;19.02
15360;BMP280;7779;49.596;11.070;2023-02-21T15:13:33;98306.06;;;18.92
15360;BMP280;7779;49.596;11.070;2023-02-21T15:18:32;98308.06;;;18.70
15360;BMP280;7779;49.596;11.070;2023-02-21T15:23:39;98302.41;;;18.47
15360;BMP280;7779;49.596;11.070;2023-02-21T15:26:22;98305.56;;;18.38
15360;BMP280;7779;49.596;11.070;2023-02-21T15:29:10;98303.59;;;18.26
15360;BMP280;7779;49.596;11.070;2023-02-21T15:31:53;98303.25;;;18.14
15360;BMP280;7779;49.596;11.070;2023-02-21T15:34:27;98304.72;;;18.06
15360;BMP280;7779;49.596;11.070;2023-02-21T15:37:18;98302.72;;;17.97
15360;BMP280;7779;49.596;11.070;2023-02-21T15:39:55;98302.53;;;17.89
15360;BMP280;7779;49.596;11.070;2023-02-21T15:42:22;98302.44;;;17.85
15360;BMP280;7779;49.596;11.070;2023-02-21T15:45:09;98293.88;;;17.83
15360;BMP280;7779;49.596;11.070;2023-02-21T15:47:37;98297.16;;;17.79
15360;BMP280;7779;49.596;11.070;2023-02-21T15:50:07;98294.63;;;17.79
15360;BMP280;7779;49.596;11.070;2023-02-21T15:52:45;98296.31;;;17.78
15360;BMP280;7779;49.596;11.070;2023-02-21T16:00:39;98296.41;;;17.81
15360;BMP280;7779;49.596;11.070;2023-02-21T16:06:27;98294.59;;;17.77
15360;BMP280;7779;49.596;11.070;2023-02-21T16:11:44;98291.69;;;17.64
15360;BMP280;7779;49.596;11.070;2023-02-21T16:17:26;98295.38;;;17.46
15360;BMP280;7779;49.596;11.070;2023-02-21T16:20:16;98294.28;;;17.38
15360;BMP280;7779;49.596;11.070;2023-02-21T16:22:44;98295.66;;;17.27
15360;BMP280;7779;49.596;11.070;2023-02-21T16:25:21;98299.63;;;17.19
15360;BMP280;7779;49.596;11.070;2023-02-21T16:27:53;98304.38;;;17.10
15360;BMP280;7779;49.596;11.070;2023-02-21T16:30:25;98288.94;;;17.01
15360;BMP280;7779;49.596;11.070;2023-02-21T16:32:58;98292.00;;;16.91
15360;BMP280;7779;49.596;11.070;2023-02-21T16:35:25;98299.38;;;16.84
15360;BMP280;7779;49.596;11.070;2023-02-21T16:37:55;98305.03;;;16.77
15360;BMP280;7779;49.596;11.070;2023-02-21T16:40:25;98301.31;;;16.66
15360;BMP280;7779;49.596;11.070;2023-02-21T16:42:52;98309.47;;;16.58
15360;BMP280;7779;49.596;11.070;2023-02-21T16:45:19;98310.78;;;16.47
15360;BMP280;7779;49.596;11.070;2023-02-21T16:47:48;98301.97;;;16.36
15360;BMP280;7779;49.596;11.070;2023-02-21T16:50:36;98309.16;;;16.24
15360;BMP280;7779;49.596;11.070;2023-02-21T16:53:03;98317.16;;;16.13
15360;BMP280;7779;49.596;11.070;2023-02-21T16:55:29;98315.13;;;16.03
15360;BMP280;7779;49.596;11.070;2023-02-21T16:58:07;98319.00;;;15.94
15360;BMP280;7779;49.596;11.070;2023-02-21T17:00:39;98316.00;;;15.80
15360;BMP280;7779;49.596;11.070;2023-02-21T17:03:05;98321.56;;;15.72